Time;durP1;ratioP1;P1;durP2;ratioP2;P2;SDS_P1;SDS_P2;PMS_P1;PMS_P2;Temp;Humidity;BMP_temperature;BMP_pressure;BME280_temperature;BME280_humidity;BME280_pressure;Samples;Min_cycle;Max_cycle;Signal;HPM_P1;HPM_P2
2021/11/07 00:17:07;;;;;;;0.13;0.05;;;2.40;98.80;;;;;;25687026;23;20116;-55
2021/11/07 00:27:34;;;;;;;0.13;0.05;;;2.20;99.70;;;;;;25709793;23;20163;-50
2021/11/07 00:37:40;;;;;;;0.57;0.10;;;2.00;99.40;;;;;;25709136;23;20012;-51
2021/11/07 00:47:50;;;;;;;0.47;0.10;;;1.90;99.30;;;;;;25717803;23;20075;-51
2021/11/07 00:57:58;;;;;;;2.53;0.10;;;2.40;98.70;;;;;;25717881;23;20020;-52
2021/11/07 01:08:02;;;;;;;1.52;0.20;;;2.20;99.00;;;;;;25717490;23;20075;-53
2021/11/07 01:18:05;;;;;;;0.25;0.20;;;1.90;99.80;;;;;;25691780;23;20401;-52
2021/11/07 01:28:08;;;;;;;1.08;0.10;;;2.00;99.60;;;;;;25716273;23;20540;-51
2021/11/07 01:38:16;;;;;;;0.95;0.10;;;2.40;98.80;;;;;;25667490;23;20009;-52
2021/11/07 01:48:24;;;;;;;0.40;0.10;;;2.90;97.30;;;;;;25691757;23;20055;-55
2021/11/07 01:58:29;;;;;;;0.00;0.00;;;3.00;97.10;;;;;;25715978;23;20351;-55
2021/11/07 02:08:32;;;;;;;0.50;0.10;;;2.90;97.30;;;;;;25690168;23;20509;-55
2021/11/07 02:18:35;;;;;;;0.30;0.10;;;2.60;98.00;;;;;;25513426;23;20025;-55
2021/11/07 02:28:43;;;;;;;0.57;0.13;;;2.50;98.00;;;;;;25712854;23;20055;-53
2021/11/07 02:38:48;;;;;;;0.22;0.10;;;2.70;97.90;;;;;;25712862;23;20005;-54
2021/11/07 02:48:57;;;;;;;0.05;0.05;;;2.10;98.90;;;;;;25712820;23;20012;-55
2021/11/07 02:59:00;;;;;;;0.30;0.10;;;1.50;99.90;;;;;;25662484;23;20016;-52
2021/11/07 03:09:06;;;;;;;0.10;0.10;;;1.30;99.90;;;;;;25663231;23;20020;-51
2021/11/07 03:19:08;;;;;;;0.40;0.00;;;1.80;99.80;;;;;;25710989;23;20024;-53
2021/11/07 03:29:12;;;;;;;0.30;0.00;;;1.80;99.00;;;;;;25712319;23;20382;-53
2021/11/07 03:39:21;;;;;;;0.10;0.00;;;2.50;96.60;;;;;;25710018;23;20047;-51
2021/11/07 03:49:24;;;;;;;0.30;0.08;;;3.30;94.00;;;;;;25684702;23;20016;-54
2021/11/07 03:59:27;;;;;;;0.20;0.10;;;3.30;93.90;;;;;;25710730;23;20450;-56
2021/11/07 04:09:30;;;;;;;0.10;0.00;;;3.30;93.90;;;;;;25662980;23;20016;-57
2021/11/07 04:19:35;;;;;;;0.03;0.00;;;3.30;93.00;;;;;;25661568;23;20106;-52
2021/11/07 04:29:38;;;;;;;0.40;0.00;;;3.60;92.10;;;;;;25709649;23;20450;-55
2021/11/07 04:39:50;;;;;;;0.55;0.10;;;3.50;93.50;;;;;;25688235;23;20009;-56
2021/11/07 04:49:54;;;;;;;0.47;0.10;;;2.70;96.30;;;;;;25708910;23;20008;-57
2021/11/07 04:59:57;;;;;;;0.13;0.00;;;2.10;98.00;;;;;;25634455;23;20492;-52
2021/11/07 05:10:00;;;;;;;0.30;0.00;;;1.90;98.40;;;;;;25657027;23;20059;-53
2021/11/07 05:20:04;;;;;;;0.20;0.10;;;1.60;99.00;;;;;;25707042;23;20020;-53
2021/11/07 05:30:10;;;;;;;0.20;0.10;;;1.80;98.40;;;;;;25711330;23;20009;-55
2021/11/07 05:40:14;;;;;;;0.20;0.00;;;1.70;98.80;;;;;;25714470;23;20409;-52
2021/11/07 05:50:18;;;;;;;1.40;0.00;;;1.70;96.30;;;;;;25714340;23;20016;-55
2021/11/07 06:00:21;;;;;;;0.65;0.00;;;3.30;91.60;;;;;;25664170;23;20008;-52
2021/11/07 06:10:24;;;;;;;0.08;0.00;;;4.10;90.50;;;;;;25713313;23;20036;-52
2021/11/07 06:20:27;;;;;;;0.17;0.10;;;4.20;87.10;;;;;;25712343;23;20032;-51
2021/11/07 06:30:30;;;;;;;0.20;0.00;;;4.70;83.60;;;;;;25712197;23;20438;-52
2021/11/07 06:40:34;;;;;;;0.10;0.00;;;5.00;80.50;;;;;;25711866;23;20437;-56
2021/11/07 06:50:37;;;;;;;0.00;0.00;;;5.10;80.30;;;;;;25711386;23;20012;-52
2021/11/07 07:00:40;;;;;;;0.20;0.00;;;5.30;82.70;;;;;;25686339;23;20074;-52
2021/11/07 07:10:54;;;;;;;0.00;0.00;;;4.60;90.40;;;;;;25684840;23;20008;-51
2021/11/07 07:41:22;;;;;;;0.13;0.10;;;5.70;88.60;;;;;;25709187;23;20008;-54
2021/11/07 07:51:28;;;;;;;0.52;0.10;;;5.70;91.20;;;;;;25658116;23;20016;-53
2021/11/07 08:01:31;;;;;;;0.10;0.03;;;5.90;89.10;;;;;;25682989;23;20012;-53
2021/11/07 08:11:34;;;;;;;0.13;0.00;;;6.10;89.20;;;;;;25682936;23;20012;-56
2021/11/07 08:21:41;;;;;;;0.80;0.10;;;6.10;88.00;;;;;;25707394;23;20401;-53
2021/11/07 08:31:46;;;;;;;0.30;0.10;;;6.20;91.20;;;;;;25707012;23;20070;-54
2021/11/07 08:42:36;;;;;;;0.13;0.10;;;6.30;92.50;;;;;;25707186;23;20004;-55
2021/11/07 09:12:59;;;;;;;0.88;0.15;;;5.80;91.70;;;;;;25715033;23;20081;-51
2021/11/07 09:53:53;;;;;;;;;;;7.60;92.50;;;;;;25432062;23;20060;-58
2021/11/07 10:03:58;;;;;;;0.65;0.20;;;9.30;92.30;;;;;;25489003;23;19908;-55
2021/11/07 10:14:10;;;;;;;0.47;0.20;;;8.80;89.80;;;;;;25712897;23;20091;-57
2021/11/07 10:24:20;;;;;;;1.55;0.20;;;9.00;92.90;;;;;;25712187;23;20033;-58
2021/11/07 10:54:42;;;;;;;0.28;0.10;;;10.90;83.20;;;;;;25712075;23;20070;-55
2021/11/07 11:05:07;;;;;;;0.15;0.10;;;10.30;86.30;;;;;;25712647;23;20020;-56
2021/11/07 11:15:13;;;;;;;0.00;0.00;;;10.00;86.10;;;;;;25711696;23;20079;-54
2021/11/07 11:35:37;;;;;;;0.70;0.22;;;10.70;89.90;;;;;;25586139;23;20013;-57
2021/11/07 11:46:13;;;;;;;0.17;0.00;;;11.80;82.10;;;;;;25586741;23;20025;-56
2021/11/07 11:56:46;;;;;;;0.20;0.10;;;12.90;84.60;;;;;;25561999;23;20064;-57
2021/11/07 12:06:49;;;;;;;0.47;0.10;;;13.90;85.10;;;;;;25562217;23;20012;-58
2021/11/07 12:17:07;;;;;;;0.30;0.10;;;14.10;83.60;;;;;;25563611;23;20008;-56
2021/11/07 12:27:25;;;;;;;0.25;0.05;;;14.20;80.80;;;;;;25814555;23;20078;-58
2021/11/07 12:48:31;;;;;;;1.58;0.15;;;14.10;72.30;;;;;;25840629;23;20038;-55
2021/11/07 12:58:34;;;;;;;0.45;0.10;;;14.10;81.30;;;;;;25787525;23;20345;-53
2021/11/07 13:08:42;;;;;;;0.40;0.10;;;14.40;80.00;;;;;;25835479;23;20069;-54
2021/11/07 13:19:09;;;;;;;0.60;0.20;;;13.80;76.30;;;;;;25833626;23;20024;-56
2021/11/07 13:39:40;;;;;;;3.22;0.10;;;12.60;78.80;;;;;;25832168;23;20038;-51
2021/11/07 13:49:53;;;;;;;1.20;0.15;;;12.20;77.80;;;;;;25834906;23;20031;-56
2021/11/07 13:59:58;;;;;;;0.30;0.13;;;11.90;80.30;;;;;;25838954;23;20433;-52
2021/11/07 14:10:07;;;;;;;0.00;0.00;;;11.50;85.00;;;;;;25838073;23;20015;-51
2021/11/07 14:20:12;;;;;;;0.60;0.13;;;11.00;78.90;;;;;;25837968;22;20082;-55
2021/11/07 14:30:20;;;;;;;0.98;0.20;;;10.50;85.40;;;;;;25812541;23;20020;-54
2021/11/07 14:40:47;;;;;;;0.45;0.00;;;10.10;83.80;;;;;;25836716;23;20334;-52
2021/11/07 15:11:39;;;;;;;0.55;0.17;;;8.50;91.30;;;;;;25835646;23;20516;-52
2021/11/07 15:21:51;;;;;;;0.43;0.20;;;7.90;93.90;;;;;;25810248;22;20028;-53
2021/11/07 15:32:04;;;;;;;0.65;0.30;;;7.60;94.50;;;;;;25835038;23;20012;-54
2021/11/07 15:42:16;;;;;;;3.67;0.50;;;7.40;96.00;;;;;;25784422;23;20507;-51
2021/11/07 15:52:31;;;;;;;2.42;0.77;;;7.20;97.50;;;;;;25834453;23;20068;-51
2021/11/07 16:02:43;;;;;;;6.25;1.00;;;7.10;99.90;;;;;;25808718;23;20043;-53
2021/11/07 16:12:52;;;;;;;7.40;1.40;;;6.90;99.90;;;;;;25833343;23;20337;-51
2021/11/07 16:23:06;;;;;;;7.80;1.42;;;6.70;99.90;;;;;;25833098;23;20024;-51
2021/11/07 16:33:18;;;;;;;4.53;1.30;;;6.60;99.90;;;;;;25807579;23;20314;-50
2021/11/07 16:43:21;;;;;;;5.38;1.50;;;6.40;99.90;;;;;;25833178;23;20016;-50
2021/11/07 16:53:37;;;;;;;3.92;1.48;;;6.20;99.90;;;;;;25833382;23;20429;-51
2021/11/07 17:03:42;;;;;;;5.20;1.60;;;6.10;99.90;;;;;;25832497;23;20004;-55
2021/11/07 17:13:45;;;;;;;6.38;1.33;;;6.10;99.90;;;;;;25832150;23;20016;-53
2021/11/07 17:34:08;;;;;;;20.85;6.88;;;5.90;99.90;;;;;;25841109;23;20035;-52
2021/11/07 18:04:37;;;;;;;2.45;0.80;;;5.30;99.90;;;;;;25839465;23;20051;-61
2021/11/07 18:14:43;;;;;;;3.42;0.90;;;5.10;99.90;;;;;;25576895;23;20009;-59
2021/11/07 18:24:48;;;;;;;2.30;0.90;;;5.30;99.90;;;;;;25552102;23;20025;-57
2021/11/07 18:34:52;;;;;;;1.48;0.68;;;5.60;99.90;;;;;;25552395;23;20188;-62
2021/11/07 18:44:59;;;;;;;0.95;0.35;;;6.20;99.90;;;;;;25552058;23;20054;-60
2021/11/07 18:55:07;;;;;;;5.40;0.80;;;6.30;99.90;;;;;;25690769;23;20327;-62
2021/11/07 19:05:10;;;;;;;2.08;0.70;;;6.20;99.90;;;;;;25836425;23;20003;-64
2021/11/07 19:15:16;;;;;;;3.78;0.80;;;6.10;99.90;;;;;;25811007;23;20055;-58
2021/11/07 19:25:19;;;;;;;3.65;1.05;;;6.00;99.90;;;;;;25832219;23;20097;-53
2021/11/07 19:35:22;;;;;;;3.25;1.00;;;5.70;99.90;;;;;;25808989;23;20020;-57
2021/11/07 19:45:27;;;;;;;2.70;0.80;;;5.50;99.90;;;;;;25833426;23;20035;-55
2021/11/07 19:55:31;;;;;;;5.00;0.77;;;5.50;99.90;;;;;;25834044;23;20004;-55
2021/11/07 20:15:44;;;;;;;0.88;0.32;;;6.00;99.90;;;;;;25832400;23;20008;-56
2021/11/07 20:25:47;;;;;;;0.90;0.50;;;6.00;99.90;;;;;;25832816;23;20349;-58
2021/11/07 20:36:00;;;;;;;1.30;0.60;;;5.80;99.90;;;;;;25807848;23;20591;-57
2021/11/07 21:27:39;;;;;;;0.75;0.20;;;6.80;99.90;;;;;;25531443;22;20009;-58
2021/11/07 21:48:06;;;;;;;3.00;0.50;;;7.10;99.90;;;;;;25780855;23;20267;-52
2021/11/07 21:58:09;;;;;;;1.98;0.60;;;7.40;99.90;;;;;;25839493;23;20027;-58
2021/11/07 22:08:12;;;;;;;2.63;0.60;;;7.40;99.90;;;;;;25839558;23;20023;-58
2021/11/07 22:18:17;;;;;;;4.32;0.82;;;7.40;99.90;;;;;;25839364;22;20016;-57
2021/11/07 22:28:29;;;;;;;1.70;0.47;;;7.20;99.90;;;;;;25838493;23;20395;-56
2021/11/07 22:38:32;;;;;;;1.58;0.57;;;7.00;99.90;;;;;;25838068;23;20020;-58
2021/11/07 22:48:35;;;;;;;4.93;0.50;;;7.00;99.90;;;;;;25837851;23;20035;-57
2021/11/07 22:59:12;;;;;;;0.88;0.45;;;7.00;99.90;;;;;;25838057;23;20388;-56
2021/11/07 23:19:33;;;;;;;1.23;0.50;;;6.10;99.90;;;;;;25835820;23;20020;-58
2021/11/07 23:29:37;;;;;;;1.98;0.70;;;5.30;99.90;;;;;;25835762;23;20333;-57
2021/11/07 23:39:40;;;;;;;2.60;0.30;;;4.90;99.90;;;;;;25834632;23;20008;-54
2021/11/07 23:49:43;;;;;;;1.92;0.60;;;4.80;99.90;;;;;;25809365;23;20314;-54
2021/11/07 23:59:47;;;;;;;3.20;0.60;;;4.80;99.90;;;;;;25834007;23;20091;-57
